Time;durP1;ratioP1;P1;durP2;ratioP2;P2;SDS_P1;SDS_P2;PMS_P1;PMS_P2;Temp;Humidity;BMP_temperature;BMP_pressure;BME280_temperature;BME280_humidity;BME280_pressure;Samples;Min_cycle;Max_cycle;Signal;HPM_P1;HPM_P2
2021/05/02 00:01:37;;;;;;;22.45;11.23;;;;;;;7.48;78.14;100943.56;5042054;28;20449;-70
2021/05/02 00:04:03;;;;;;;15.68;9.45;;;;;;;7.45;78.44;100949.06;5060089;28;20272;-70
2021/05/02 00:06:30;;;;;;;16.10;9.18;;;;;;;7.43;78.53;100953.59;5064911;28;20038;-70
2021/05/02 00:08:56;;;;;;;15.35;9.63;;;;;;;7.37;78.46;100951.22;5059952;28;20060;-70
2021/05/02 00:11:21;;;;;;;17.90;10.13;;;;;;;7.30;78.77;100950.66;5060616;28;20743;-70
2021/05/02 00:13:47;;;;;;;15.57;9.77;;;;;;;7.26;78.82;100949.94;5062526;28;20027;-70
2021/05/02 00:16:12;;;;;;;14.63;8.60;;;;;;;7.20;79.13;100947.56;5059123;28;20078;-70
2021/05/02 00:18:38;;;;;;;15.70;9.65;;;;;;;7.15;79.49;100956.72;5062507;28;20017;-70
2021/05/02 00:21:13;;;;;;;14.80;9.55;;;;;;;7.09;80.05;100955.22;5064428;28;20590;-70
2021/05/02 00:23:41;;;;;;;14.60;10.45;;;;;;;7.04;80.36;100959.88;5062584;28;20090;-71
2021/05/02 00:26:09;;;;;;;15.43;10.13;;;;;;;7.01;80.76;100960.03;5059023;28;20041;-70
2021/05/02 00:28:37;;;;;;;17.02;10.80;;;;;;;6.95;81.55;100949.63;5063640;28;20024;-70
2021/05/02 00:31:07;;;;;;;20.10;11.32;;;;;;;6.93;81.84;100953.28;5059867;28;20021;-70
2021/05/02 00:33:35;;;;;;;19.55;11.60;;;;;;;6.93;81.91;100950.63;5059045;28;20075;-70
2021/05/02 00:36:02;;;;;;;20.92;10.50;;;;;;;6.90;81.99;100959.66;5057394;28;20036;-70
2021/05/02 00:38:28;;;;;;;19.88;11.05;;;;;;;6.87;82.00;100957.97;5056073;28;20043;-70
2021/05/02 00:40:56;;;;;;;19.25;11.20;;;;;;;6.83;82.08;100958.19;5058137;28;20025;-70
2021/05/02 00:43:56;;;;;;;25.02;13.07;;;;;;;6.78;82.58;100957.53;5062281;28;20143;-70
2021/05/02 00:46:33;;;;;;;22.98;11.07;;;;;;;6.69;83.03;100956.13;5065675;28;20021;-70
2021/05/02 00:49:07;;;;;;;19.80;11.85;;;;;;;6.64;83.42;100951.94;5065227;28;20044;-70
2021/05/02 00:51:38;;;;;;;17.92;11.10;;;;;;;6.60;83.65;100948.56;5056026;28;20724;-70
2021/05/02 00:54:06;;;;;;;18.00;11.07;;;;;;;6.58;83.75;100960.22;5060525;28;20484;-70
2021/05/02 00:56:36;;;;;;;21.98;12.30;;;;;;;6.57;83.80;100958.47;5064010;28;20031;-70
2021/05/02 00:59:07;;;;;;;20.23;11.45;;;;;;;6.54;83.79;100953.28;5057964;28;20033;-70
2021/05/02 01:01:42;;;;;;;21.02;11.57;;;;;;;6.54;83.94;100963.97;5065746;28;20564;-70
2021/05/02 01:04:10;;;;;;;23.77;13.13;;;;;;;6.54;83.93;100958.63;5059705;28;20044;-70
2021/05/02 01:06:39;;;;;;;21.77;12.93;;;;;;;6.49;84.06;100964.13;5063569;28;20085;-70
2021/05/02 01:09:04;;;;;;;22.05;13.20;;;;;;;6.47;84.48;100964.22;5073008;28;20039;-70
2021/05/02 01:11:32;;;;;;;20.95;12.52;;;;;;;6.43;84.73;100962.59;5069014;28;20035;-70
2021/05/02 01:14:00;;;;;;;25.80;13.35;;;;;;;6.38;85.13;100964.59;5065352;28;20060;-70
2021/05/02 01:16:28;;;;;;;22.73;13.43;;;;;;;6.37;85.49;100962.88;5055385;28;20432;-70
2021/05/02 01:18:55;;;;;;;21.08;13.52;;;;;;;6.32;85.89;100958.69;5062476;28;20123;-70
2021/05/02 01:21:31;;;;;;;21.95;13.93;;;;;;;6.28;86.55;100965.94;5056968;28;20739;-70
2021/05/02 01:24:00;;;;;;;25.58;15.10;;;;;;;6.32;87.15;100964.88;5063776;28;20032;-70
2021/05/02 01:26:28;;;;;;;27.08;15.50;;;;;;;6.27;87.73;100961.53;5061691;28;20107;-70
2021/05/02 01:28:55;;;;;;;28.10;15.05;;;;;;;6.30;88.68;100963.19;5055083;28;20025;-70
2021/05/02 01:31:21;;;;;;;26.00;16.02;;;;;;;6.39;89.67;100966.34;5064421;28;20056;-70
2021/05/02 01:33:48;;;;;;;26.48;15.88;;;;;;;6.33;90.40;100969.28;5063920;28;20040;-70
2021/05/02 01:36:14;;;;;;;29.30;16.98;;;;;;;6.38;90.77;100969.06;5056470;28;20044;-70
2021/05/02 01:38:40;;;;;;;29.58;16.60;;;;;;;6.33;91.39;100963.94;5062528;28;20024;-70
2021/05/02 01:41:06;;;;;;;31.42;16.48;;;;;;;6.26;91.95;100962.47;5043929;28;20053;-70
2021/05/02 01:43:31;;;;;;;32.50;16.83;;;;;;;6.24;92.16;100967.00;5059470;28;20067;-70
2021/05/02 01:45:57;;;;;;;35.63;17.48;;;;;;;6.22;92.26;100962.69;5059735;28;20039;-70
2021/05/02 01:48:25;;;;;;;29.05;17.77;;;;;;;6.19;92.62;100974.31;5060238;28;20036;-70
2021/05/02 01:50:59;;;;;;;31.02;17.42;;;;;;;6.11;93.06;100968.44;5060300;28;20031;-71
2021/05/02 01:53:25;;;;;;;32.78;18.02;;;;;;;6.18;93.52;100975.25;5060467;28;20119;-70
2021/05/02 01:55:52;;;;;;;33.03;17.85;;;;;;;6.16;93.75;100978.94;5061160;28;20111;-70
2021/05/02 01:58:20;;;;;;;31.52;18.20;;;;;;;6.12;94.28;100972.84;5055808;28;20050;-70
2021/05/02 02:00:51;;;;;;;33.22;18.42;;;;;;;6.14;94.41;100979.00;5060401;28;20029;-70
2021/05/02 02:03:18;;;;;;;37.92;18.90;;;;;;;6.24;95.03;100977.66;5063387;28;20140;-70
2021/05/02 02:05:44;;;;;;;35.53;18.67;;;;;;;6.12;95.49;100977.31;5063204;28;20075;-70
2021/05/02 02:08:10;;;;;;;33.60;18.85;;;;;;;6.13;95.39;100979.91;5065174;28;20457;-70
2021/05/02 02:10:36;;;;;;;32.78;18.85;;;;;;;6.07;95.53;100982.84;5064518;28;20098;-70
2021/05/02 02:13:02;;;;;;;37.00;19.23;;;;;;;6.15;95.73;100971.84;5059943;28;20447;-70
2021/05/02 02:15:30;;;;;;;35.95;19.92;;;;;;;6.08;96.12;100979.25;5060782;28;20052;-70
2021/05/02 02:17:55;;;;;;;37.72;19.67;;;;;;;6.12;96.53;100980.84;5062642;28;20115;-70
2021/05/02 02:20:26;;;;;;;36.40;19.52;;;;;;;6.14;96.84;100986.09;5059754;28;20115;-70
2021/05/02 02:23:00;;;;;;;35.13;20.33;;;;;;;6.03;97.27;100989.22;5059864;28;20112;-70
2021/05/02 02:25:31;;;;;;;38.97;21.00;;;;;;;6.10;97.46;100996.03;5067602;28;20036;-70
2021/05/02 02:28:01;;;;;;;43.22;22.23;;;;;;;6.13;97.91;100985.25;5065285;28;20103;-70
2021/05/02 02:30:31;;;;;;;42.42;21.65;;;;;;;6.14;98.37;100997.63;5058660;28;20509;-70
2021/05/02 02:32:58;;;;;;;39.65;21.35;;;;;;;6.09;98.24;100997.84;5058564;28;20029;-70
2021/05/02 02:35:25;;;;;;;43.95;22.02;;;;;;;6.09;98.52;100997.84;5059494;28;20792;-70
2021/05/02 02:37:54;;;;;;;44.92;22.83;;;;;;;6.09;98.80;100996.97;5065881;28;20036;-70
2021/05/02 02:40:22;;;;;;;44.53;24.00;;;;;;;6.06;99.16;100999.75;5067124;28;20035;-70
2021/05/02 02:42:49;;;;;;;43.70;22.77;;;;;;;6.09;99.28;101000.50;5067579;28;20037;-70
2021/05/02 02:45:15;;;;;;;43.28;23.60;;;;;;;6.07;99.41;101007.69;5061034;28;20037;-70
2021/05/02 02:47:48;;;;;;;40.65;23.42;;;;;;;6.09;99.63;101004.97;5066784;28;20028;-70
2021/05/02 02:50:16;;;;;;;46.83;25.58;;;;;;;6.11;99.46;101015.56;5066024;28;20606;-70
2021/05/02 02:52:45;;;;;;;50.13;25.13;;;;;;;6.09;99.80;101005.84;5064343;28;20353;-71
2021/05/02 02:55:14;;;;;;;49.08;25.70;;;;;;;6.03;99.85;101014.09;5063825;28;20393;-70
2021/05/02 02:57:51;;;;;;;51.35;25.48;;;;;;;6.06;100.00;101008.59;5068239;28;20089;-70
2021/05/02 03:00:20;;;;;;;53.85;26.50;;;;;;;6.13;100.00;101022.56;5062907;28;20044;-70
2021/05/02 03:02:50;;;;;;;52.22;25.90;;;;;;;6.09;100.00;101018.28;5069411;28;20036;-70
2021/05/02 03:05:19;;;;;;;46.90;25.52;;;;;;;6.16;100.00;101025.09;5060644;28;20366;-70
2021/05/02 03:07:47;;;;;;;49.15;25.63;;;;;;;6.12;100.00;101018.16;5063618;28;20093;-70
2021/05/02 03:10:14;;;;;;;49.40;25.95;;;;;;;6.17;100.00;101024.19;5067431;28;20032;-70
2021/05/02 03:12:42;;;;;;;43.65;24.13;;;;;;;6.16;100.00;101025.09;5062750;28;20051;-70
2021/05/02 03:15:08;;;;;;;46.75;24.98;;;;;;;6.20;100.00;101029.38;5063680;28;20044;-70
2021/05/02 03:17:35;;;;;;;45.75;24.88;;;;;;;6.24;100.00;101028.31;5065250;28;20051;-70
2021/05/02 03:20:06;;;;;;;48.15;24.95;;;;;;;6.23;100.00;101028.38;5059021;28;20033;-70
2021/05/02 03:22:56;;;;;;;46.72;25.60;;;;;;;6.28;100.00;101037.94;5054612;28;20041;-73
2021/05/02 03:25:24;;;;;;;42.20;22.60;;;;;;;6.38;100.00;101033.94;5058401;28;20036;-70
2021/05/02 03:27:59;;;;;;;47.10;22.77;;;;;;;6.39;100.00;101035.66;5064782;28;20020;-70
2021/05/02 03:30:27;;;;;;;40.83;22.48;;;;;;;6.46;100.00;101037.16;5073736;28;20032;-70
2021/05/02 03:32:54;;;;;;;43.85;22.75;;;;;;;6.45;100.00;101040.75;5064623;28;20040;-70
2021/05/02 03:35:24;;;;;;;48.03;23.05;;;;;;;6.51;100.00;101036.94;5075762;28;20055;-70
2021/05/02 03:38:08;;;;;;;40.65;21.40;;;;;;;6.42;100.00;101038.19;5059545;28;20081;-70
2021/05/02 03:40:34;;;;;;;41.28;21.05;;;;;;;6.45;100.00;101039.88;5051659;28;20530;-72
2021/05/02 03:43:00;;;;;;;40.08;21.48;;;;;;;6.51;100.00;101044.94;5064905;28;20055;-72
2021/05/02 03:45:25;;;;;;;47.28;20.30;;;;;;;6.50;100.00;101048.53;5062682;28;20646;-72
2021/05/02 03:47:50;;;;;;;39.42;20.65;;;;;;;6.52;100.00;101052.03;5060534;28;20021;-70
2021/05/02 03:50:16;;;;;;;40.42;19.42;;;;;;;6.50;100.00;101054.75;5060563;28;20393;-70
2021/05/02 03:52:41;;;;;;;37.65;18.50;;;;;;;6.54;100.00;101058.16;5060525;28;20036;-70
2021/05/02 03:55:07;;;;;;;35.40;19.33;;;;;;;6.54;100.00;101059.97;5068327;28;20043;-70
2021/05/02 03:57:33;;;;;;;33.90;18.85;;;;;;;6.59;100.00;101057.97;5060471;28;20025;-70
2021/05/02 03:59:58;;;;;;;37.40;20.13;;;;;;;6.59;99.80;101063.31;5071337;28;20128;-70
2021/05/02 04:02:23;;;;;;;37.92;18.65;;;;;;;6.58;100.00;101072.22;5056184;28;20416;-70
2021/05/02 04:04:49;;;;;;;43.80;20.08;;;;;;;6.48;100.00;101071.75;5071602;28;20176;-70
2021/05/02 04:07:14;;;;;;;33.13;18.33;;;;;;;6.42;100.00;101072.84;5055797;28;20037;-70
2021/05/02 04:09:46;;;;;;;43.70;19.10;;;;;;;6.50;100.00;101083.22;5066563;28;20408;-70
2021/05/02 04:12:12;;;;;;;32.80;18.08;;;;;;;6.50;100.00;101080.53;5063718;28;20043;-70
2021/05/02 04:14:37;;;;;;;35.00;18.50;;;;;;;6.50;100.00;101084.09;5078992;28;20031;-70
2021/05/02 04:17:12;;;;;;;35.10;17.63;;;;;;;6.65;99.25;101089.72;5065220;28;20038;-70
2021/05/02 04:19:50;;;;;;;35.03;17.50;;;;;;;6.52;99.76;101093.81;5067257;28;20107;-70
2021/05/02 04:22:17;;;;;;;39.90;18.20;;;;;;;6.51;100.00;101092.94;5060289;28;20163;-70
2021/05/02 04:24:44;;;;;;;32.40;16.75;;;;;;;6.54;100.00;101091.97;5062756;28;20572;-71
2021/05/02 04:27:10;;;;;;;32.70;17.00;;;;;;;6.70;98.86;101098.38;5064821;28;20028;-70
2021/05/02 04:29:37;;;;;;;29.38;16.35;;;;;;;6.61;98.25;101096.09;5066269;28;20017;-70
2021/05/02 04:32:03;;;;;;;33.70;15.95;;;;;;;6.62;98.79;101100.50;5059173;28;20044;-71
2021/05/02 04:34:29;;;;;;;31.00;15.30;;;;;;;6.62;98.81;101100.50;5059370;28;20121;-70
2021/05/02 04:36:56;;;;;;;31.70;14.95;;;;;;;6.64;98.26;101103.97;5056721;28;20069;-70
2021/05/02 04:39:23;;;;;;;30.25;15.65;;;;;;;6.65;97.92;101109.25;5066799;28;20032;-71
2021/05/02 04:41:49;;;;;;;26.55;14.82;;;;;;;6.65;97.67;101116.38;5055412;28;20029;-70
2021/05/02 04:44:15;;;;;;;27.58;15.02;;;;;;;6.75;97.18;101117.72;5064443;28;20036;-70
2021/05/02 04:46:41;;;;;;;30.92;14.40;;;;;;;6.70;97.13;101117.06;5054804;28;20859;-70
2021/05/02 04:49:08;;;;;;;30.55;14.40;;;;;;;6.65;97.35;101119.06;5060735;28;20029;-70
2021/05/02 04:51:34;;;;;;;26.83;14.98;;;;;;;6.67;97.57;101123.38;5056852;28;20020;-71
2021/05/02 04:54:00;;;;;;;29.90;14.93;;;;;;;6.71;97.16;101132.13;5060535;28;20029;-70
2021/05/02 04:56:26;;;;;;;27.88;14.15;;;;;;;6.64;97.59;101126.19;5063316;28;20028;-71
2021/05/02 04:58:51;;;;;;;26.70;14.88;;;;;;;6.72;97.07;101131.22;5063378;28;20502;-70
2021/05/02 05:01:17;;;;;;;30.17;14.10;;;;;;;6.81;96.63;101141.47;5062785;28;20064;-70
2021/05/02 05:03:44;;;;;;;27.58;14.15;;;;;;;6.71;96.59;101142.81;5055600;28;20094;-70
2021/05/02 05:06:10;;;;;;;29.33;14.38;;;;;;;6.74;96.93;101142.66;5058759;28;20036;-70
2021/05/02 05:08:35;;;;;;;24.17;12.98;;;;;;;6.69;96.95;101150.00;5058322;28;20033;-70
2021/05/02 05:11:01;;;;;;;24.58;13.45;;;;;;;6.72;96.97;101152.56;5064562;28;20030;-70
2021/05/02 05:13:27;;;;;;;24.02;12.57;;;;;;;6.73;96.91;101143.59;5074863;28;20116;-70
2021/05/02 05:15:57;;;;;;;19.85;12.00;;;;;;;6.81;96.21;101154.81;5060473;28;20139;-70
2021/05/02 05:18:22;;;;;;;24.35;12.07;;;;;;;6.73;96.76;101162.25;5066014;28;20568;-70
2021/05/02 05:20:49;;;;;;;22.13;12.27;;;;;;;6.81;96.08;101155.69;5062566;28;20108;-70
2021/05/02 05:23:14;;;;;;;19.63;10.68;;;;;;;6.84;95.72;101158.25;5079321;28;20483;-70
2021/05/02 05:25:39;;;;;;;19.52;10.00;;;;;;;6.88;94.92;101172.31;5060471;28;20029;-70
2021/05/02 05:28:05;;;;;;;25.77;10.23;;;;;;;6.95;94.48;101173.78;5064991;28;20028;-70
2021/05/02 05:30:30;;;;;;;20.90;10.68;;;;;;;7.00;93.99;101177.13;5061403;28;20020;-70
2021/05/02 05:33:09;;;;;;;18.70;9.63;;;;;;;7.01;93.17;101173.53;5067081;28;20726;-72
2021/05/02 05:35:37;;;;;;;18.35;9.02;;;;;;;7.11;93.29;101184.69;5058477;28;20028;-72
2021/05/02 05:38:03;;;;;;;18.45;8.73;;;;;;;7.17;92.51;101184.41;5060032;28;20025;-73
2021/05/02 05:40:29;;;;;;;15.45;8.30;;;;;;;7.21;91.47;101186.91;5059137;28;20623;-72
2021/05/02 05:42:55;;;;;;;20.77;9.18;;;;;;;7.21;90.99;101186.03;5066500;28;20036;-73
2021/05/02 05:45:21;;;;;;;17.27;8.65;;;;;;;7.28;91.30;101193.69;5068531;28;20119;-73
2021/05/02 05:47:49;;;;;;;18.35;8.55;;;;;;;7.34;91.21;101197.06;5066145;28;20220;-73
2021/05/02 05:50:15;;;;;;;16.88;8.02;;;;;;;7.49;90.79;101199.03;5062156;28;20028;-73
2021/05/02 05:52:42;;;;;;;18.45;8.05;;;;;;;7.58;89.88;101193.31;5059404;28;20025;-72
2021/05/02 05:55:09;;;;;;;12.15;6.82;;;;;;;7.65;88.37;101202.81;5058958;28;20044;-73
2021/05/02 05:57:35;;;;;;;18.52;8.32;;;;;;;7.70;88.23;101206.13;5063268;28;20028;-72
2021/05/02 06:00:00;;;;;;;16.80;7.22;;;;;;;7.81;86.92;101203.84;5067590;28;20017;-72
2021/05/02 06:02:26;;;;;;;12.13;7.53;;;;;;;7.85;86.73;101194.72;5065166;28;20366;-73
2021/05/02 06:04:51;;;;;;;14.57;6.55;;;;;;;7.91;86.78;101202.47;5089352;28;20036;-73
2021/05/02 06:07:16;;;;;;;13.23;7.20;;;;;;;8.07;85.73;101208.00;5056435;28;20163;-73
2021/05/02 06:09:42;;;;;;;11.18;5.80;;;;;;;7.97;85.39;101210.19;5071266;28;20078;-72
2021/05/02 06:12:08;;;;;;;11.25;6.38;;;;;;;7.97;85.30;101206.66;5063959;28;20113;-72
2021/05/02 06:14:33;;;;;;;17.48;6.22;;;;;;;8.04;85.90;101211.66;5060820;28;20432;-73
2021/05/02 06:16:59;;;;;;;15.10;5.88;;;;;;;8.02;84.22;101216.19;5071134;28;20029;-73
2021/05/02 06:19:26;;;;;;;15.82;6.85;;;;;;;8.16;83.89;101214.69;5054389;28;20503;-73
2021/05/02 06:21:52;;;;;;;22.83;7.80;;;;;;;8.06;84.53;101215.16;5064521;28;20036;-73
2021/05/02 06:24:17;;;;;;;17.15;8.05;;;;;;;8.12;83.82;101220.22;5062509;28;20040;-72
2021/05/02 06:26:43;;;;;;;13.90;6.05;;;;;;;8.12;83.68;101220.22;5065249;28;20028;-72
2021/05/02 06:29:08;;;;;;;11.80;6.40;;;;;;;8.06;83.63;101225.84;5052843;28;20067;-71
2021/05/02 06:31:34;;;;;;;11.25;5.60;;;;;;;8.48;81.66;101235.50;5064680;28;20492;-71
2021/05/02 06:33:59;;;;;;;10.57;5.88;;;;;;;8.63;81.44;101232.09;5066388;28;20033;-70
2021/05/02 06:36:24;;;;;;;12.23;5.65;;;;;;;8.98;79.50;101232.19;5060464;28;20042;-70
2021/05/02 06:38:50;;;;;;;18.25;7.10;;;;;;;9.09;79.37;101241.41;5067153;28;20032;-71
2021/05/02 06:41:15;;;;;;;8.43;5.15;;;;;;;9.10;77.84;101226.22;5064526;28;20041;-71
2021/05/02 06:43:41;;;;;;;17.98;5.82;;;;;;;9.09;77.58;101240.53;5060487;28;20036;-71
2021/05/02 06:46:06;;;;;;;16.25;5.63;;;;;;;9.03;78.26;101238.16;5056352;28;20045;-71
2021/05/02 06:48:31;;;;;;;11.23;5.05;;;;;;;9.12;78.03;101240.41;5068064;28;20032;-71
2021/05/02 06:50:58;;;;;;;14.13;5.70;;;;;;;9.13;78.13;101244.81;5055737;28;20052;-71
2021/05/02 06:53:23;;;;;;;14.40;5.60;;;;;;;8.95;77.57;101243.06;5065577;28;20032;-71
2021/05/02 06:55:49;;;;;;;17.75;5.47;;;;;;;9.12;76.80;101251.13;5059498;28;20032;-71
2021/05/02 06:58:14;;;;;;;11.55;5.68;;;;;;;9.41;75.00;101245.16;5067899;28;20072;-71
2021/05/02 07:00:40;;;;;;;17.00;6.38;;;;;;;10.23;73.39;101246.19;5039533;28;20218;-71
2021/05/02 07:03:06;;;;;;;8.25;5.03;;;;;;;10.84;69.53;101251.69;5065210;28;20028;-71
2021/05/02 07:05:32;;;;;;;9.07;4.82;;;;;;;10.70;68.57;101240.84;5061462;28;20035;-71
2021/05/02 07:07:58;;;;;;;9.02;4.45;;;;;;;11.56;66.47;101256.41;5060145;28;20107;-71
2021/05/02 07:10:23;;;;;;;8.70;4.55;;;;;;;11.47;65.24;101258.78;5068174;28;20536;-71
2021/05/02 07:12:49;;;;;;;8.77;3.90;;;;;;;11.87;62.20;101263.50;5068037;28;20111;-71
2021/05/02 07:15:15;;;;;;;10.20;4.22;;;;;;;11.86;62.83;101253.72;5072779;28;20039;-72
2021/05/02 07:17:40;;;;;;;10.10;3.78;;;;;;;11.49;61.78;101257.72;5058903;28;20413;-71
2021/05/02 07:20:09;;;;;;;8.85;3.63;;;;;;;11.56;62.59;101260.91;5069222;28;20028;-71
2021/05/02 07:22:34;;;;;;;12.98;4.18;;;;;;;11.66;62.79;101267.50;5085268;28;20028;-71
2021/05/02 07:25:00;;;;;;;9.95;4.28;;;;;;;11.47;62.72;101266.84;5074990;28;20379;-71
2021/05/02 07:27:26;;;;;;;10.32;4.13;;;;;;;11.81;62.36;101268.41;5066239;28;20093;-70
2021/05/02 07:29:51;;;;;;;13.15;4.40;;;;;;;11.95;60.60;101266.63;5060903;28;20526;-71
2021/05/02 07:32:16;;;;;;;10.43;4.03;;;;;;;12.74;57.76;101263.41;5066394;28;20024;-71
2021/05/02 07:34:42;;;;;;;9.88;3.67;;;;;;;12.38;58.12;101274.72;5062094;28;20039;-70
2021/05/02 07:37:09;;;;;;;12.68;3.75;;;;;;;11.88;57.44;101273.31;5079179;28;20058;-72
2021/05/02 07:39:34;;;;;;;9.40;4.25;;;;;;;11.21;59.76;101271.94;5055841;28;20028;-71
2021/05/02 07:42:00;;;;;;;7.97;4.00;;;;;;;11.15;63.57;101271.41;5066904;28;20556;-71
2021/05/02 07:44:25;;;;;;;11.93;4.45;;;;;;;11.30;61.83;101274.06;5065419;28;20071;-71
2021/05/02 07:46:51;;;;;;;6.20;3.40;;;;;;;10.90;61.32;101269.28;5061248;28;20029;-72
2021/05/02 07:49:16;;;;;;;9.20;3.95;;;;;;;10.53;62.87;101271.34;5057873;28;20501;-71
2021/05/02 07:51:41;;;;;;;9.80;3.38;;;;;;;11.00;61.49;101272.28;5065097;28;20119;-71
2021/05/02 07:54:07;;;;;;;15.18;3.15;;;;;;;12.35;56.80;101272.19;5055176;28;20060;-71
2021/05/02 07:56:32;;;;;;;7.43;3.42;;;;;;;12.84;54.71;101278.00;5057257;28;20028;-70
2021/05/02 07:58:58;;;;;;;10.48;3.30;;;;;;;12.62;54.74;101283.06;5070978;28;20211;-72
2021/05/02 08:01:24;;;;;;;9.73;3.50;;;;;;;12.49;55.82;101282.97;5064676;28;20346;-71
2021/05/02 08:03:49;;;;;;;11.70;3.47;;;;;;;12.21;56.05;101285.66;5061336;28;20032;-71
2021/05/02 08:06:14;;;;;;;5.47;3.20;;;;;;;12.02;57.81;101286.81;5067378;28;20424;-72
2021/05/02 08:08:40;;;;;;;12.02;3.47;;;;;;;12.21;58.15;101285.66;5057992;28;20055;-71
2021/05/02 08:11:05;;;;;;;13.43;3.88;;;;;;;12.26;56.35;101291.63;5065027;28;20044;-71
2021/05/02 08:13:31;;;;;;;14.90;3.30;;;;;;;12.01;55.80;101295.84;5056478;28;20033;-71
2021/05/02 08:15:56;;;;;;;12.73;3.60;;;;;;;11.99;57.34;101286.97;5057779;28;20024;-72
2021/05/02 08:18:22;;;;;;;6.07;3.30;;;;;;;12.27;56.01;101290.66;5050336;28;20556;-71
2021/05/02 08:20:47;;;;;;;7.18;2.92;;;;;;;12.77;53.73;101285.66;5056481;28;20060;-71
2021/05/02 08:23:13;;;;;;;5.20;2.72;;;;;;;13.75;51.30;101291.69;5054611;28;20140;-71
2021/05/02 08:25:39;;;;;;;7.90;2.85;;;;;;;14.46;46.47;101293.03;5060113;28;20500;-71
2021/05/02 08:28:05;;;;;;;4.63;2.30;;;;;;;14.57;47.56;101296.69;5047419;28;20032;-71
2021/05/02 08:30:31;;;;;;;12.00;2.97;;;;;;;13.99;47.45;101293.66;5060513;28;20020;-72
2021/05/02 08:32:57;;;;;;;12.48;2.90;;;;;;;12.84;51.93;101292.34;5061091;28;20085;-72
2021/05/02 08:35:23;;;;;;;8.98;3.13;;;;;;;12.45;53.35;101300.28;5059560;28;20040;-70
2021/05/02 08:37:48;;;;;;;8.65;2.70;;;;;;;12.25;54.54;101301.53;5056125;28;20091;-72
2021/05/02 08:40:14;;;;;;;11.00;3.00;;;;;;;12.00;55.30;101304.84;5060030;28;20035;-70
2021/05/02 08:42:40;;;;;;;7.05;2.97;;;;;;;12.21;55.48;101301.81;5058335;28;20043;-72
2021/05/02 08:45:07;;;;;;;12.77;2.80;;;;;;;12.30;52.94;101309.31;5057972;28;20029;-71
2021/05/02 08:47:36;;;;;;;6.47;2.75;;;;;;;12.40;51.77;101313.19;5058684;28;20060;-69
2021/05/02 08:50:10;;;;;;;9.70;2.72;;;;;;;13.22;49.82;101307.88;5054565;28;20052;-71
2021/05/02 08:52:37;;;;;;;4.57;2.22;;;;;;;13.68;46.55;101294.88;5059446;28;20465;-72
2021/05/02 08:55:06;;;;;;;8.63;2.28;;;;;;;12.83;48.13;101304.13;5060149;28;20067;-71
2021/05/02 08:57:32;;;;;;;7.13;2.25;;;;;;;12.00;51.14;101310.25;5074044;28;20119;-72
2021/05/02 08:59:59;;;;;;;4.53;1.67;;;;;;;11.96;52.25;101314.09;5058426;28;20078;-72
2021/05/02 09:02:26;;;;;;;6.93;2.20;;;;;;;11.76;51.20;101309.03;5057247;28;20033;-72
2021/05/02 09:04:56;;;;;;;3.28;1.80;;;;;;;11.74;51.24;101310.94;5057593;28;20032;-70
2021/05/02 09:07:23;;;;;;;8.50;1.75;;;;;;;12.62;48.22;101313.53;5056439;28;20512;-71
2021/05/02 09:09:49;;;;;;;6.50;1.90;;;;;;;13.40;43.89;101305.78;5055985;28;20123;-72
2021/05/02 09:12:25;;;;;;;5.95;1.48;;;;;;;14.14;42.79;101309.63;5057498;28;20036;-72
2021/05/02 09:14:52;;;;;;;6.22;2.00;;;;;;;14.16;43.13;101317.63;5057803;28;20530;-71
2021/05/02 09:17:39;;;;;;;4.57;2.28;;;;;;;13.76;42.38;101312.25;5058085;28;20120;-71
2021/05/02 09:20:06;;;;;;;7.25;1.88;;;;;;;13.11;44.45;101310.38;5055967;28;20362;-72
2021/05/02 09:22:32;;;;;;;6.53;2.50;;;;;;;12.98;46.25;101311.19;5058901;28;20044;-71
2021/05/02 09:25:10;;;;;;;13.68;2.70;;;;;;;12.55;47.70;101312.19;5041789;28;20033;-71
2021/05/02 09:27:50;;;;;;;4.13;1.85;;;;;;;12.97;46.89;101306.75;5045212;28;20066;-73
2021/05/02 09:30:20;;;;;;;6.45;1.73;;;;;;;13.71;45.03;101317.13;5042347;28;20879;-72
2021/05/02 09:32:48;;;;;;;5.68;1.83;;;;;;;14.26;42.77;101317.88;5045766;28;20375;-70
2021/05/02 09:35:28;;;;;;;14.00;2.67;;;;;;;13.63;42.32;101316.78;5056694;28;20040;-72
2021/05/02 09:38:11;;;;;;;4.45;1.98;;;;;;;13.45;43.32;101312.63;5062932;28;20037;-72
2021/05/02 09:40:54;;;;;;;9.50;2.90;;;;;;;13.11;44.70;101321.16;5056876;28;20566;-71
2021/05/02 09:43:43;;;;;;;12.32;2.33;;;;;;;13.35;43.73;101324.97;5059621;28;20032;-73
2021/05/02 09:46:29;;;;;;;5.72;2.20;;;;;;;13.24;44.36;101316.75;5060682;28;20035;-72
2021/05/02 09:49:08;;;;;;;8.52;2.47;;;;;;;13.20;42.63;101313.41;5061699;28;20119;-72
2021/05/02 09:51:33;;;;;;;4.32;2.03;;;;;;;13.09;44.16;101312.31;5059373;28;20043;-70
2021/05/02 09:54:17;;;;;;;3.88;2.20;;;;;;;12.90;44.71;101318.88;5063113;28;20054;-72
2021/05/02 09:56:49;;;;;;;;;;;;;;;12.58;45.27;101317.41;5060105;28;20425;-72
2021/05/02 09:59:25;;;;;;;4.82;1.88;;;;;;;12.43;45.79;101329.13;5062095;28;20902;-71
2021/05/02 10:02:29;;;;;;;3.15;2.05;;;;;;;12.29;47.61;101332.66;5059929;28;20028;-70
2021/05/02 10:04:57;;;;;;;13.77;2.20;;;;;;;12.27;48.19;101337.31;5061201;28;20025;-72
2021/05/02 10:07:25;;;;;;;6.43;2.05;;;;;;;12.03;49.17;101336.97;5061145;28;20483;-72
2021/05/02 10:09:54;;;;;;;5.07;2.33;;;;;;;11.93;48.38;101338.47;5061333;28;20163;-70
2021/05/02 10:12:20;;;;;;;6.70;2.38;;;;;;;12.13;47.38;101334.56;5060591;28;20044;-72
2021/05/02 10:14:47;;;;;;;6.18;2.05;;;;;;;12.55;45.08;101328.34;5069106;28;20038;-73
2021/05/02 10:17:13;;;;;;;3.28;1.90;;;;;;;13.39;43.37;101331.91;5060716;28;20047;-72
2021/05/02 10:19:39;;;;;;;5.38;1.75;;;;;;;13.44;41.78;101340.56;5063952;28;20029;-72
2021/05/02 10:22:06;;;;;;;8.95;2.10;;;;;;;13.29;42.77;101328.06;5068010;28;20033;-72
2021/05/02 10:24:32;;;;;;;23.23;2.10;;;;;;;13.00;42.05;101334.47;5063505;28;20062;-72
2021/05/02 10:26:57;;;;;;;7.57;2.63;;;;;;;12.79;42.09;101329.50;5057300;28;20442;-72
2021/05/02 10:29:28;;;;;;;20.88;2.55;;;;;;;12.80;41.06;101323.16;5066379;28;20064;-71
2021/05/02 10:32:03;;;;;;;3.22;1.80;;;;;;;12.97;42.36;101335.53;5065755;28;20028;-72
2021/05/02 10:34:37;;;;;;;5.63;1.95;;;;;;;12.80;41.14;101327.66;5068609;28;20056;-72
2021/05/02 10:37:22;;;;;;;8.82;3.08;;;;;;;12.73;42.27;101332.59;5069387;28;20079;-72
2021/05/02 10:40:07;;;;;;;3.40;1.60;;;;;;;12.73;42.98;101337.97;5065385;28;20048;-72
2021/05/02 10:42:36;;;;;;;7.43;1.60;;;;;;;12.82;44.06;101341.91;5068533;28;20042;-72
2021/05/02 10:45:27;;;;;;;7.03;1.90;;;;;;;12.62;43.25;101331.53;5065321;28;20175;-72
2021/05/02 10:47:53;;;;;;;3.70;1.50;;;;;;;12.47;40.87;101346.81;5068109;28;20032;-72
2021/05/02 10:50:29;;;;;;;4.93;1.70;;;;;;;12.58;40.76;101333.56;5062253;28;20331;-73
2021/05/02 10:53:10;;;;;;;9.80;1.60;;;;;;;12.61;39.72;101327.97;5063433;28;20098;-72
2021/05/02 10:56:04;;;;;;;5.03;2.85;;;;;;;12.77;40.32;101333.28;5064090;28;20036;-72
2021/05/02 10:58:35;;;;;;;2.78;1.70;;;;;;;12.96;40.20;101334.66;5066416;28;20032;-72
2021/05/02 11:01:07;;;;;;;6.07;4.07;;;;;;;13.17;41.01;101340.53;5059384;28;20025;-70
2021/05/02 11:03:36;;;;;;;2.38;1.40;;;;;;;13.36;40.75;101332.97;5062720;28;20036;-71
2021/05/02 11:06:08;;;;;;;6.57;1.48;;;;;;;13.54;40.10;101336.28;5062513;28;20028;-72
2021/05/02 11:08:49;;;;;;;9.57;2.87;;;;;;;13.41;39.13;101335.34;5056120;28;20259;-71
2021/05/02 11:11:33;;;;;;;3.75;1.42;;;;;;;13.20;40.22;101334.09;5061195;28;20574;-72
2021/05/02 11:14:14;;;;;;;3.85;1.33;;;;;;;13.13;40.30;101347.09;5058788;28;20667;-73
2021/05/02 11:16:40;;;;;;;6.47;2.08;;;;;;;13.03;40.58;101345.91;5059257;28;20077;-72
2021/05/02 11:19:08;;;;;;;5.10;1.73;;;;;;;13.07;40.80;101342.06;5065633;28;20028;-70
2021/05/02 11:22:04;;;;;;;6.13;2.05;;;;;;;12.81;40.50;101349.13;5060422;28;20031;-73
2021/05/02 11:24:47;;;;;;;3.05;1.35;;;;;;;12.72;41.12;101346.13;5054107;28;20029;-72
2021/05/02 11:27:26;;;;;;;8.70;1.95;;;;;;;12.75;41.33;101351.34;5079628;28;20126;-72